Detalhes do Voo

Voltar

 DETALHES DO VÔO

Piloto: GLD352 Luciano F. Aeronave: AIRCRAFT.UI_MANUFACTURE Distância: 649NM
Origem: SBGP Destino: SBJV Duração: 2.82
Validação: Validado Tipo: Charter Matrícula: PT-GLD
ZFW: 43337 Block Fuel/Init FOB 1,175/0 Combustível em Voo 1,175
Passageiros: 26 Carga: 1 Alternativo: SBFL
Hora da Decolagem: 0944 Velocidade de Cruzeiro: 280 Nível de Voo: 210
Regra Visual: IFR ICAO da Aeronave: AT76 Unidade de Peso: Kg
Data: 16/05/2023 Observação: GOLD ACARS Rede: IVAO
Acidentou?: Não Comentários do Validador: Pontuação do Voo 96.9408

 ROTA

ROTA ANSOK Z31 LON W48 UKDUN W48 CTB
REMARKS OPR/GOLD VIRTUAL AIRLINES PER/SBGP RMK/FROM RMK/PIC GLD352

 PENALIDADES DO VOO

Para entender como cada item é pontuado, consulte as regras de avaliação.

Nenhuma penalidade registrada para este voo.

 ANÁLISE DO POUSO

Vento durante o pouso: 119º/9 kt Proa durante o pouso: 128
V/S do Pouso: -401 ft/min IAS do Pouso: 136 kt
Força G no pouso: 1.0224 G Bank no pouso: -0.82
Pitch no Pouso -1.21 Flaps no Pouso 100
Nav Lights ON Landing Lights ON
Beacon Lights ON Strobe Lights ON

 MAPA DO VOO

 PERFIL VERTICAL DO VOO

 EVENTOS PRINCIPAIS DO VOO

DATAEVENTOIASALTITUDE
2023-05-16 09:44:05 GOLD ACARS VERSION 3.1.0.000
2023-05-16 09:44:05 NAV LIGHTS ON00
2023-05-16 09:44:06 BOARDING11806
2023-05-16 09:44:46 STARTING ENGINE 211806
2023-05-16 09:44:46 BEACON LIGHT OFF & ENGINE ON11806
2023-05-16 09:44:49 BCN LIGHTS ON11806
2023-05-16 09:48:02 TAXI LIGHTS ON01996
2023-05-16 09:48:20 STARTING ENGINE 101997
2023-05-16 09:48:55 FLAP 50%01998
2023-05-16 09:49:33 TAXI TO THE RWY21998
2023-05-16 09:52:34 STB LIGHTS ON02002
2023-05-16 09:52:35 TAXI LIGHTS OFF02002
2023-05-16 09:52:36 LND LIGHTS ON02002
2023-05-16 09:55:00 CLIMBING1262010
2023-05-16 09:55:04 GEAR UP1292089
2023-05-16 09:55:08 FLAP 0%1282195
2023-05-16 09:55:29 AP ENGAGED1432840
2023-05-16 09:58:42 LND LIGHTS OFF12510006
2023-05-16 10:01:32 CRUISE11814489
2023-05-16 10:01:40 CLIMBING12714521
2023-05-16 10:07:23 CRUISE12520943
2023-05-16 11:12:28 REFUEL20020994
2023-05-16 11:56:45 DESCEND18821003
2023-05-16 12:03:43 LND LIGHTS ON24210531
2023-05-16 12:03:43 LIGHTS ON ABOVE 10000 ft24210520
2023-05-16 12:15:28 CLIMBING2307019
2023-05-16 12:15:30 CRUISE2307041
2023-05-16 12:15:36 CLIMBING2317043
2023-05-16 12:15:39 CRUISE2317066
2023-05-16 12:15:49 DESCEND2287092
2023-05-16 12:15:59 CLIMBING2317070
2023-05-16 12:16:02 CRUISE2307093
2023-05-16 12:16:12 DESCEND2307067
2023-05-16 12:22:46 CLIMBING1722137
2023-05-16 12:22:48 CRUISE1712152
2023-05-16 12:23:14 GEAR DOWN1871887
2023-05-16 12:23:49 LANDING1661575
2023-05-16 12:23:55 FLAP 50%1591548
2023-05-16 12:25:33 FLAP 100%1351517
2023-05-16 12:25:56 AP DISENGAGED1251519
2023-05-16 12:27:05 LANDED - VS: -401 ft/min 13530
2023-05-16 12:27:22 TAXI TO THE GATE2721
2023-05-16 12:27:51 FLAP 50%723
2023-05-16 12:27:51 FLAP 0%723
2023-05-16 12:30:24 NAV LIGHTS OFF327
2023-05-16 12:30:28 LND LIGHTS OFF625
2023-05-16 12:30:30 TAXI LIGHTS ON724
2023-05-16 12:31:19 STB LIGHTS OFF1021
2023-05-16 12:31:19 TAXING WITH TAXI LIGHTS OFF1021
2023-05-16 12:31:20 STB LIGHTS ON1021
2023-05-16 12:31:37 STOPPING ENGINE 1022
2023-05-16 12:32:26 AT THE GATE022
2023-05-16 12:32:31 STB LIGHTS OFF022
2023-05-16 12:33:11 STOPPING ENGINE 2022
2023-05-16 12:33:12 BCN LIGHTS OFF022
2023-05-16 12:33:17 BCN LIGHTS ON022
2023-05-16 12:33:20 BCN LIGHTS OFF022
2023-05-16 12:33:30 FLIGHT FINISHED022

 DADOS DO ACARS

DATA IAS GS ALTITUDE COMBUSTÍVEL USADO OAT FASE DO VOO
2023-05-16 09:46:06 2 0 1806 1 16 BOARDING
2023-05-16 09:47:07 1 0 1998 1 16 BOARDING
2023-05-16 09:48:07 0 2 1997 1 16 BOARDING
2023-05-16 09:49:08 0 0 1998 2 16 BOARDING
2023-05-16 09:50:08 13 15 1999 4 16 BOARDING
2023-05-16 09:51:09 17 20 2001 6 16 TAXI TO THE RWY
2023-05-16 09:52:09 8 10 2000 7 17 TAXI TO THE RWY
2023-05-16 09:53:10 0 0 2002 9 17 TAXI TO THE RWY
2023-05-16 09:54:10 2 0 2002 11 17 TAXI TO THE RWY
2023-05-16 09:55:11 130 132 2309 26 17 TAXI TO THE RWY
2023-05-16 09:56:11 144 149 4836 45 15 CLIMBING
2023-05-16 09:57:12 132 142 6860 63 13 CLIMBING
2023-05-16 09:58:13 128 137 8987 80 11 CLIMBING
2023-05-16 09:59:13 122 135 11019 96 8 CLIMBING
2023-05-16 10:00:14 119 136 12682 110 4 CLIMBING
2023-05-16 10:01:14 117 137 14179 124 1 CLIMBING
2023-05-16 10:02:15 116 161 15441 137 -1 CLIMBING
2023-05-16 10:03:15 115 165 16691 150 -4 CLIMBING
2023-05-16 10:04:16 114 166 17926 162 -6 CLIMBING
2023-05-16 10:05:17 115 168 19015 174 -9 CLIMBING
2023-05-16 10:06:17 116 169 20023 185 -11 CLIMBING
2023-05-16 10:07:18 122 178 20912 196 -14 CLIMBING
2023-05-16 10:08:18 164 236 21000 207 -14 CLIMBING
2023-05-16 10:09:19 186 265 20990 218 -14 CRUISE
2023-05-16 10:10:19 194 264 20998 229 -14 CRUISE
2023-05-16 10:11:20 200 273 20993 240 -14 CRUISE
2023-05-16 10:12:21 201 275 20994 251 -14 CRUISE
2023-05-16 10:13:21 202 275 20999 261 -14 CRUISE
2023-05-16 10:14:22 201 275 21004 272 -14 CRUISE
2023-05-16 10:15:22 201 274 21002 283 -14 CRUISE
2023-05-16 10:16:23 201 274 21000 293 -14 CRUISE
2023-05-16 10:17:23 201 274 21001 304 -14 CRUISE
2023-05-16 10:18:24 200 275 21005 315 -14 CRUISE
2023-05-16 10:19:24 200 276 21005 325 -14 CRUISE
2023-05-16 10:20:25 200 276 20999 336 -14 CRUISE
2023-05-16 10:21:25 201 277 20998 347 -14 CRUISE
2023-05-16 10:22:26 200 276 21000 357 -14 CRUISE
2023-05-16 10:23:26 200 276 21005 368 -14 CRUISE
2023-05-16 10:24:27 200 277 20998 379 -14 CRUISE
2023-05-16 10:25:27 201 278 20997 390 -14 CRUISE
2023-05-16 10:26:28 202 279 20999 400 -14 CRUISE
2023-05-16 10:27:29 202 279 20998 411 -14 CRUISE
2023-05-16 10:28:29 201 278 21001 422 -14 CRUISE
2023-05-16 10:29:30 201 278 21001 432 -14 CRUISE
2023-05-16 10:30:30 201 279 20994 443 -14 CRUISE
2023-05-16 10:31:31 200 278 21001 454 -14 CRUISE
2023-05-16 10:32:32 200 278 20996 465 -14 CRUISE
2023-05-16 10:33:32 201 279 21002 475 -14 CRUISE
2023-05-16 10:34:33 201 280 20999 486 -14 CRUISE
2023-05-16 10:35:33 201 280 20997 497 -14 CRUISE
2023-05-16 10:36:34 201 280 21001 508 -14 CRUISE
2023-05-16 10:37:34 201 280 20997 518 -14 CRUISE
2023-05-16 10:38:35 201 280 21001 529 -14 CRUISE
2023-05-16 10:39:35 201 280 20997 540 -14 CRUISE
2023-05-16 10:40:36 201 281 20998 551 -14 CRUISE
2023-05-16 10:41:36 201 281 20996 561 -14 CRUISE
2023-05-16 10:42:37 201 281 20998 572 -14 CRUISE
2023-05-16 10:43:38 201 281 21001 583 -14 CRUISE
2023-05-16 10:44:38 200 286 21003 594 -14 CRUISE
2023-05-16 10:45:39 200 283 21002 605 -14 CRUISE
2023-05-16 10:46:39 201 287 20998 616 -14 CRUISE
2023-05-16 10:47:40 201 288 20999 627 -14 CRUISE
2023-05-16 10:48:41 201 288 21002 637 -14 CRUISE
2023-05-16 10:49:41 201 288 20996 648 -14 CRUISE
2023-05-16 10:50:42 201 287 20998 659 -14 CRUISE
2023-05-16 10:51:42 201 288 21001 670 -14 CRUISE
2023-05-16 10:52:43 201 287 21000 680 -14 CRUISE
2023-05-16 10:53:43 201 287 20997 691 -14 CRUISE
2023-05-16 10:54:44 201 287 21002 702 -14 CRUISE
2023-05-16 10:55:44 201 287 20997 712 -14 CRUISE
2023-05-16 10:56:45 201 287 21000 723 -14 CRUISE
2023-05-16 10:57:46 201 287 21003 734 -14 CRUISE
2023-05-16 10:58:46 201 286 21007 745 -14 CRUISE
2023-05-16 10:59:47 201 287 21000 755 -14 CRUISE
2023-05-16 11:00:47 201 286 21001 766 -14 CRUISE
2023-05-16 11:01:48 201 286 21003 777 -14 CRUISE
2023-05-16 11:02:48 200 286 20999 787 -14 CRUISE
2023-05-16 11:03:49 201 287 21002 798 -14 CRUISE
2023-05-16 11:04:49 200 286 21002 809 -14 CRUISE
2023-05-16 11:05:50 200 286 21001 819 -14 CRUISE
2023-05-16 11:06:50 199 284 20996 830 -14 CRUISE
2023-05-16 11:07:51 199 274 21006 841 -14 CRUISE
2023-05-16 11:08:52 200 277 20997 852 -14 CRUISE
2023-05-16 11:09:52 200 277 20997 862 -14 CRUISE
2023-05-16 11:10:53 201 277 20998 873 -14 CRUISE
2023-05-16 11:11:53 201 278 21000 884 -14 CRUISE
2023-05-16 11:12:54 200 276 21000 -1734 -14 CRUISE
2023-05-16 11:13:54 199 275 20998 -1723 -14 CRUISE
2023-05-16 11:14:55 197 273 20996 -1715 -14 CRUISE
2023-05-16 11:15:55 193 267 20995 -1705 -14 CRUISE
2023-05-16 11:16:56 190 262 21000 -1696 -14 CRUISE
2023-05-16 11:17:57 188 260 21002 -1686 -14 CRUISE
2023-05-16 11:18:57 188 260 21001 -1677 -14 CRUISE
2023-05-16 11:19:58 188 260 21001 -1667 -14 CRUISE
2023-05-16 11:20:58 187 259 21001 -1657 -14 CRUISE
2023-05-16 11:21:59 187 259 20997 -1648 -14 CRUISE
2023-05-16 11:22:59 187 259 20998 -1638 -14 CRUISE
2023-05-16 11:24:00 187 259 21007 -1629 -14 CRUISE
2023-05-16 11:25:00 187 260 21005 -1619 -14 CRUISE
2023-05-16 11:26:01 187 259 21004 -1609 -14 CRUISE
2023-05-16 11:27:01 186 259 20999 -1600 -14 CRUISE
2023-05-16 11:28:02 186 258 21001 -1590 -14 CRUISE
2023-05-16 11:29:03 186 259 20999 -1581 -14 CRUISE
2023-05-16 11:30:03 186 259 20998 -1571 -14 CRUISE
2023-05-16 11:31:04 187 259 20995 -1561 -14 CRUISE
2023-05-16 11:32:04 187 258 20995 -1552 -14 CRUISE
2023-05-16 11:33:05 187 257 21009 -1542 -14 CRUISE
2023-05-16 11:34:05 186 257 21001 -1532 -14 CRUISE
2023-05-16 11:35:06 186 257 20999 -1523 -14 CRUISE
2023-05-16 11:36:06 188 258 20998 -1513 -14 CRUISE
2023-05-16 11:37:07 187 258 20996 -1504 -14 CRUISE
2023-05-16 11:38:08 187 258 21000 -1494 -14 CRUISE
2023-05-16 11:39:08 187 258 20997 -1484 -14 CRUISE
2023-05-16 11:40:09 188 259 20995 -1475 -14 CRUISE
2023-05-16 11:41:09 189 260 21001 -1465 -14 CRUISE
2023-05-16 11:42:10 189 259 21002 -1456 -14 CRUISE
2023-05-16 11:43:11 189 259 21003 -1446 -14 CRUISE
2023-05-16 11:44:11 189 259 20992 -1436 -14 CRUISE
2023-05-16 11:45:12 188 258 21013 -1427 -14 CRUISE
2023-05-16 11:46:12 188 258 21007 -1417 -14 CRUISE
2023-05-16 11:47:13 188 258 20997 -1407 -14 CRUISE
2023-05-16 11:48:13 187 256 20995 -1398 -14 CRUISE
2023-05-16 11:49:14 186 256 20998 -1388 -14 CRUISE
2023-05-16 11:50:14 188 258 21010 -1378 -14 CRUISE
2023-05-16 11:51:15 188 258 21001 -1369 -14 CRUISE
2023-05-16 11:52:15 189 258 20997 -1359 -14 CRUISE
2023-05-16 11:53:16 188 258 20999 -1349 -14 CRUISE
2023-05-16 11:54:17 188 257 20997 -1340 -14 CRUISE
2023-05-16 11:55:17 188 257 21001 -1330 -14 CRUISE
2023-05-16 11:56:18 188 257 20998 -1321 -14 CRUISE
2023-05-16 11:57:18 210 281 20200 -1312 -13 CRUISE
2023-05-16 11:58:19 230 298 18698 -1305 -9 DESCEND
2023-05-16 11:59:19 240 302 17102 -1298 -6 DESCEND
2023-05-16 12:00:20 247 301 15531 -1290 -2 DESCEND
2023-05-16 12:01:20 250 296 14077 -1282 0 DESCEND
2023-05-16 12:02:21 251 290 12511 -1274 4 DESCEND
2023-05-16 12:03:21 244 277 11030 -1268 7 DESCEND
2023-05-16 12:04:22 234 262 10067 -1261 10 DESCEND
2023-05-16 12:05:22 229 255 10014 -1248 10 DESCEND
2023-05-16 12:06:23 224 250 10003 -1236 10 DESCEND
2023-05-16 12:07:24 225 251 10017 -1224 10 DESCEND
2023-05-16 12:08:24 226 253 9995 -1211 10 DESCEND
2023-05-16 12:09:25 225 252 10009 -1199 9 DESCEND
2023-05-16 12:10:26 225 248 10011 -1186 9 DESCEND
2023-05-16 12:11:26 226 250 9999 -1174 9 DESCEND
2023-05-16 12:12:27 241 261 8821 -1165 10 DESCEND
2023-05-16 12:13:27 242 259 7417 -1159 12 DESCEND
2023-05-16 12:14:28 238 255 7022 -1147 12 DESCEND
2023-05-16 12:15:28 232 255 7024 -1134 12 DESCEND
2023-05-16 12:16:29 232 264 7041 -1121 12 CLIMBING
2023-05-16 12:17:30 230 256 6988 -1108 12 DESCEND
2023-05-16 12:18:30 251 271 5552 -1097 12 DESCEND
2023-05-16 12:19:31 225 237 4906 -1089 12 DESCEND
2023-05-16 12:20:31 209 218 2934 -1084 14 DESCEND
2023-05-16 12:21:32 170 176 2182 -1080 16 DESCEND
2023-05-16 12:22:32 173 181 2130 -1073 16 DESCEND
2023-05-16 12:23:33 181 190 1645 -1068 20 DESCEND
2023-05-16 12:24:34 137 143 1528 -1062 20 CRUISE
2023-05-16 12:25:34 136 140 1515 -1054 20 LANDING
2023-05-16 12:26:35 148 147 764 -1047 22 LANDING
2023-05-16 12:27:35 38 30 23 -1043 23 LANDING
2023-05-16 12:28:36 6 15 23 -1041 23 TAXI TO THE GATE
2023-05-16 12:29:36 0 8 22 -1039 23 TAXI TO THE GATE
2023-05-16 12:30:37 1 2 23 -1037 23 TAXI TO THE GATE
2023-05-16 12:31:37 0 0 22 -1035 23 TAXI TO THE GATE
2023-05-16 12:32:38 0 0 22 -1033 23 TAXI TO THE GATE